Strona główna
METAR-TAF:

METAR-TAF

Lotnisko :

Port lotniczy Rabat-Sala

Rabat, Maroko

Szerokość geograficzna: 34-03N, Długość geograficzna: 006-46W, wysokość: 84 m

Aktualna obserwacja pogody

Raport powstał 40 minut temu, godzina 04:30 UTC
Wiatr 6 kt od południowo-południowy wschód
Temperatura 10°C
Wilgotność 100%
Ciśnienie 1018 hPa
Widzialność: 5000 m
Rozproszone chmury na wysokości 1600 ft

METAR: GMME 070430Z 16006KT 5000 SCT016 10/10 Q1018 NOSIG

czas: 06:10 (05:10 UTC)

Prognoza

Raport powstał 6 godziny i 10 minut temu, godzina 23:00 UTC
Prognoza ważna od 07 godzina 00 UTC do 08 godzina 06 UTC
Wiatr 8 kt od północ
Widzialność: 8000 m
Rozproszone chmury na wysokości 1500 ft
Przejściowo
od 07 godzina 02 UTC do 07 godzina 07 UTC
Wiatr 2 kt z kierunków zmiennych
Widzialność: 4000 m
Przerywane chmury na wysokości 800 ft
zamglenie

TAF: GMME 062300Z 0700/0806 36008KT 8000 SCT015 TEMPO 0702/0707 VRB02KT 4000 BR BKN008

Obserwacja i prognoza pogody dla ponad 4000 lotnisk (raport METAR i TAF).

Dostępne stacje oznaczono żółtymi i czerwonymi punktami na mapie.

Najedź kursorem aby zobaczyć nazwę stacji.

Kliknij aby zobaczyć obserwacje i prognozy pogody.

Aby zmienić mapę: kliknij na zielony przycisk z czarnym krzyżykiem, aby powiększyć; na zielony przycisk z myślnikiem, aby pomniejszyć; na zielone strzałki, aby przejść do map sąsiednich.


METAR-TAF: